Time;durP1;ratioP1;P1;durP2;ratioP2;P2;SDS_P1;SDS_P2;PMS_P1;PMS_P2;Temp;Humidity;BMP_temperature;BMP_pressure;BME280_temperature;BME280_humidity;BME280_pressure;Samples;Min_cycle;Max_cycle;Signal;HPM_P1;HPM_P2
2022/01/03 00:01:05;;;;;;;10.88;6.32;;;;;;;17.34;65.50;99496.09;3098348;28;20137;-53
2022/01/03 00:02:39;;;;;;;10.57;6.35;;;;;;;17.33;65.47;99488.22;3089462;28;20046;-56
2022/01/03 00:04:12;;;;;;;7.80;5.38;;;;;;;17.34;65.49;99487.22;3098598;28;20062;-54
2022/01/03 00:05:44;;;;;;;13.13;5.85;;;;;;;17.32;65.41;99479.31;3097697;28;20597;-55
2022/01/03 00:07:17;;;;;;;11.77;6.22;;;;;;;17.32;65.52;99483.84;3096744;28;20125;-53
2022/01/03 00:08:49;;;;;;;10.82;6.15;;;;;;;17.30;65.51;99486.72;3096596;28;20132;-56
2022/01/03 00:10:21;;;;;;;11.45;6.05;;;;;;;17.30;65.51;99489.41;3098518;28;20056;-54
2022/01/03 00:11:53;;;;;;;11.70;5.93;;;;;;;17.30;65.45;99492.09;3096491;28;21024;-57
2022/01/03 00:13:26;;;;;;;9.40;6.10;;;;;;;17.30;65.54;99486.72;3097356;28;21021;-54
2022/01/03 00:14:58;;;;;;;14.45;7.35;;;;;;;17.29;65.44;99492.25;3097595;28;20041;-54
2022/01/03 00:16:32;;;;;;;9.90;6.05;;;;;;;17.28;65.57;99488.75;3098502;28;20058;-56
2022/01/03 00:18:04;;;;;;;13.93;6.65;;;;;;;17.28;65.59;99482.53;3096559;28;20053;-55
2022/01/03 00:19:36;;;;;;;11.00;5.15;;;;;;;17.27;65.57;99478.19;3097763;28;20054;-52
2022/01/03 00:21:12;;;;;;;10.98;6.47;;;;;;;17.24;65.59;99479.34;3095425;28;20049;-56
2022/01/03 00:22:50;;;;;;;9.02;5.72;;;;;;;17.25;65.55;99485.59;3099212;28;20050;-55
2022/01/03 00:24:32;;;;;;;11.18;5.90;;;;;;;17.24;65.46;99476.69;3094646;28;20137;-53
2022/01/03 00:26:04;;;;;;;10.35;5.30;;;;;;;17.23;65.58;99471.50;3096549;28;20053;-53
2022/01/03 00:27:44;;;;;;;11.85;6.00;;;;;;;17.22;65.59;99473.34;3096953;28;20051;-56
2022/01/03 00:29:17;;;;;;;13.95;6.50;;;;;;;17.21;65.57;99466.31;3094139;28;20051;-55
2022/01/03 00:30:54;;;;;;;10.00;5.72;;;;;;;17.20;65.58;99464.66;3098280;28;20116;-56
2022/01/03 00:32:29;;;;;;;11.18;7.10;;;;;;;17.19;65.54;99462.97;3096313;28;20054;-56
2022/01/03 00:34:03;;;;;;;11.27;5.78;;;;;;;17.17;65.61;99460.47;3101532;28;20611;-55
2022/01/03 00:35:39;;;;;;;13.00;6.65;;;;;;;17.16;65.68;99464.16;3098171;28;20702;-54
2022/01/03 00:37:12;;;;;;;10.60;6.30;;;;;;;17.17;65.67;99460.47;3101617;28;20057;-56
2022/01/03 00:38:44;;;;;;;13.23;6.40;;;;;;;17.16;65.73;99457.94;3095029;28;20093;-56
2022/01/03 00:40:17;;;;;;;12.15;6.15;;;;;;;17.14;65.76;99455.44;3096423;28;20729;-53
2022/01/03 00:41:49;;;;;;;9.95;6.15;;;;;;;17.15;65.65;99461.66;3102163;28;20054;-56
2022/01/03 00:43:22;;;;;;;11.52;6.13;;;;;;;17.12;65.77;99454.78;3094754;28;20649;-55
2022/01/03 00:44:54;;;;;;;11.52;5.75;;;;;;;17.11;65.68;99461.16;3096176;28;20469;-56
2022/01/03 00:46:27;;;;;;;9.13;5.18;;;;;;;17.10;65.78;99464.84;3095893;28;20053;-56
2022/01/03 00:48:00;;;;;;;13.23;6.45;;;;;;;17.09;65.76;99459.66;3095918;28;20046;-57
2022/01/03 00:49:32;;;;;;;14.82;5.75;;;;;;;17.09;65.75;99456.97;3098153;28;20054;-57
2022/01/03 00:51:04;;;;;;;11.60;5.90;;;;;;;17.09;65.69;99463.19;3099708;28;20050;-54
2022/01/03 00:52:36;;;;;;;10.30;5.93;;;;;;;17.07;65.77;99459.00;3099446;28;20512;-55
2022/01/03 00:54:08;;;;;;;10.07;6.90;;;;;;;17.08;65.72;99463.38;3099373;28;20096;-56
2022/01/03 00:55:55;;;;;;;9.35;5.30;;;;;;;17.07;65.87;99459.00;3100842;28;20139;-58
2022/01/03 00:57:38;;;;;;;8.27;5.38;;;;;;;17.05;65.72;99453.81;3096602;28;20085;-56
2022/01/03 00:59:13;;;;;;;10.60;5.63;;;;;;;17.03;65.83;99458.50;3096086;28;20049;-57
2022/01/03 01:00:47;;;;;;;10.93;5.75;;;;;;;17.02;65.84;99448.81;3097120;28;20073;-55
2022/01/03 01:02:20;;;;;;;10.27;6.10;;;;;;;17.03;65.82;99449.66;3096852;28;20176;-55
2022/01/03 01:03:56;;;;;;;11.93;6.03;;;;;;;17.02;65.82;99445.28;3101584;28;20050;-54
2022/01/03 01:05:28;;;;;;;9.20;5.22;;;;;;;17.01;65.85;99444.44;3096907;28;20049;-56
2022/01/03 01:07:00;;;;;;;11.35;5.72;;;;;;;17.01;65.85;99446.28;3097898;28;20049;-55
2022/01/03 01:08:34;;;;;;;14.50;6.90;;;;;;;17.00;65.81;99444.63;3097020;28;21005;-56
2022/01/03 01:10:07;;;;;;;9.88;5.47;;;;;;;16.98;65.91;99445.63;3097724;28;20053;-55
2022/01/03 01:11:43;;;;;;;10.52;5.43;;;;;;;16.98;65.82;99439.44;3096499;28;20053;-55
2022/01/03 01:13:16;;;;;;;11.35;6.15;;;;;;;16.97;65.86;99443.13;3096708;28;20644;-54
2022/01/03 01:14:50;;;;;;;10.88;6.22;;;;;;;16.96;65.82;99441.44;3099311;28;20050;-55
2022/01/03 01:16:22;;;;;;;11.40;5.25;;;;;;;16.95;65.87;99445.16;3098464;28;20133;-56
2022/01/03 01:17:54;;;;;;;9.48;5.05;;;;;;;16.94;65.92;99440.81;3094417;28;20050;-53
2022/01/03 01:19:28;;;;;;;9.57;6.03;;;;;;;16.95;65.92;99455.88;3092928;28;20129;-55
2022/01/03 01:21:00;;;;;;;9.82;5.35;;;;;;;16.94;65.76;99452.34;3097712;28;20132;-56
2022/01/03 01:22:32;;;;;;;10.32;6.13;;;;;;;16.93;65.85;99452.50;3098370;28;20096;-57
2022/01/03 01:24:05;;;;;;;8.13;6.18;;;;;;;16.91;65.87;99441.97;3100116;28;20049;-55
2022/01/03 01:29:16;;;;;;;7.82;4.93;;;;;;;16.90;65.89;99428.75;3095317;28;20073;-55
2022/01/03 01:30:55;;;;;;;10.93;5.70;;;;;;;16.89;65.84;99419.03;3101866;28;20068;-54
2022/01/03 01:32:29;;;;;;;12.15;6.75;;;;;;;16.88;65.96;99423.56;3099335;28;20632;-56
2022/01/03 01:34:04;;;;;;;8.25;5.45;;;;;;;16.86;66.02;99420.22;3102259;28;20121;-54
2022/01/03 01:35:46;;;;;;;11.00;5.47;;;;;;;16.87;65.97;99418.38;3094099;28;20108;-55
2022/01/03 01:37:20;;;;;;;8.38;4.50;;;;;;;16.87;65.98;99415.69;3096446;28;20041;-55
2022/01/03 01:38:53;;;;;;;6.65;4.70;;;;;;;16.86;65.92;99417.53;3096457;28;20050;-56
2022/01/03 01:40:25;;;;;;;7.90;5.28;;;;;;;16.85;65.92;99413.19;3099273;28;20061;-53
2022/01/03 01:42:02;;;;;;;9.98;5.70;;;;;;;16.85;65.83;99412.34;3099981;28;20057;-55
2022/01/03 01:43:39;;;;;;;7.72;4.93;;;;;;;16.84;65.92;99413.38;3094059;28;20713;-53
2022/01/03 01:45:11;;;;;;;8.85;5.95;;;;;;;16.84;65.80;99410.69;3094110;28;20547;-54
2022/01/03 01:46:46;;;;;;;10.13;5.05;;;;;;;16.84;65.91;99411.50;3098408;28;20140;-55
2022/01/03 01:48:23;;;;;;;9.68;5.35;;;;;;;16.82;65.95;99404.66;3093193;28;20400;-56
2022/01/03 01:49:57;;;;;;;11.02;5.80;;;;;;;16.81;65.93;99411.03;3094624;28;20050;-57
2022/01/03 01:51:34;;;;;;;7.40;5.50;;;;;;;16.80;65.94;99409.34;3094121;28;20045;-55
2022/01/03 01:53:06;;;;;;;9.40;5.05;;;;;;;16.79;65.88;99405.84;3098462;28;20082;-54
2022/01/03 01:54:39;;;;;;;7.22;4.88;;;;;;;16.81;65.80;99413.72;3089826;28;20054;-54
2022/01/03 01:56:16;;;;;;;8.75;5.50;;;;;;;16.80;65.87;99406.66;3096312;28;20050;-56
2022/01/03 01:57:57;;;;;;;10.02;5.00;;;;;;;16.80;65.88;99395.94;3100881;28;20049;-55
2022/01/03 01:59:35;;;;;;;13.85;5.93;;;;;;;16.78;65.82;99392.63;3099974;28;21136;-55
2022/01/03 02:01:09;;;;;;;10.57;5.90;;;;;;;16.77;65.89;99393.63;3100903;28;20555;-56
2022/01/03 02:02:47;;;;;;;9.15;4.80;;;;;;;16.77;65.96;99380.22;3094671;28;20104;-53
2022/01/03 02:04:35;;;;;;;10.07;5.57;;;;;;;16.77;65.78;99394.47;3098665;28;20050;-56
2022/01/03 02:06:30;;;;;;;8.90;5.40;;;;;;;16.77;65.79;99390.94;3101093;28;20107;-58
2022/01/03 02:08:26;;;;;;;10.07;6.13;;;;;;;16.75;65.85;99391.94;3093939;28;20054;-56
2022/01/03 02:10:07;;;;;;;6.57;3.85;;;;;;;16.74;65.73;99392.94;3096489;28;20038;-56
2022/01/03 02:11:51;;;;;;;10.27;4.90;;;;;;;16.74;65.90;99392.09;3091035;28;20061;-56
2022/01/03 02:13:23;;;;;;;9.73;5.18;;;;;;;16.74;65.80;99389.41;3095350;28;20054;-55
2022/01/03 02:14:58;;;;;;;7.38;4.90;;;;;;;16.71;65.73;99390.59;3099493;28;20058;-56
2022/01/03 02:16:33;;;;;;;8.45;5.07;;;;;;;16.72;65.87;99394.97;3096749;28;20141;-55
2022/01/03 02:18:07;;;;;;;9.20;4.63;;;;;;;16.71;65.97;99398.63;3099602;28;20054;-57
2022/01/03 02:19:40;;;;;;;10.50;5.70;;;;;;;16.71;65.91;99393.25;3094330;28;20042;-55
2022/01/03 02:21:14;;;;;;;6.45;4.88;;;;;;;16.71;65.89;99392.44;3098530;28;20046;-55
2022/01/03 02:22:46;;;;;;;10.27;6.10;;;;;;;16.70;65.88;99393.47;3099814;28;20696;-56
2022/01/03 02:24:18;;;;;;;8.93;4.90;;;;;;;16.69;65.84;99397.16;3097725;28;20400;-54
2022/01/03 02:25:50;;;;;;;8.93;5.18;;;;;;;16.68;65.96;99390.94;3098412;28;20050;-56
2022/01/03 02:27:22;;;;;;;9.15;5.13;;;;;;;16.67;65.82;99383.91;3090171;28;20046;-56
2022/01/03 02:28:54;;;;;;;8.52;4.53;;;;;;;16.66;65.96;99381.41;3096225;28;20116;-55
2022/01/03 02:30:26;;;;;;;8.98;5.35;;;;;;;16.67;65.86;99383.91;3096871;28;20472;-56
2022/01/03 02:31:58;;;;;;;9.77;6.10;;;;;;;16.67;65.89;99383.91;3099865;28;20050;-55
2022/01/03 02:33:30;;;;;;;7.72;4.63;;;;;;;16.64;65.92;99381.59;3097666;28;20065;-56
2022/01/03 02:35:04;;;;;;;8.85;4.75;;;;;;;16.64;65.98;99386.13;3095374;28;20096;-54
2022/01/03 02:36:36;;;;;;;9.38;5.38;;;;;;;16.62;65.91;99385.44;3096627;28;20413;-56
2022/01/03 02:38:09;;;;;;;8.52;4.82;;;;;;;16.62;65.97;99388.94;3099236;28;20635;-56
2022/01/03 02:39:40;;;;;;;10.23;4.97;;;;;;;16.60;65.99;99385.59;3099846;28;20054;-52
2022/01/03 02:41:12;;;;;;;7.65;4.85;;;;;;;16.60;65.98;99393.63;3098595;28;20127;-56
2022/01/03 02:42:44;;;;;;;9.48;4.75;;;;;;;16.60;65.99;99392.81;3095456;28;20058;-55
2022/01/03 02:44:19;;;;;;;7.30;4.28;;;;;;;16.61;66.06;99394.50;3097806;28;20050;-55
2022/01/03 02:45:50;;;;;;;6.50;4.05;;;;;;;16.59;65.93;99391.16;3096243;28;20058;-56
2022/01/03 02:47:23;;;;;;;8.73;4.78;;;;;;;16.58;65.99;99401.03;3096621;28;20046;-55
2022/01/03 02:48:54;;;;;;;5.97;4.38;;;;;;;16.58;65.95;99395.69;3097022;28;20069;-55
2022/01/03 02:50:29;;;;;;;10.80;5.47;;;;;;;16.58;65.93;99386.81;3095072;28;20447;-56
2022/01/03 02:52:01;;;;;;;6.97;4.30;;;;;;;16.57;66.02;99391.31;3100433;28;20061;-52
2022/01/03 02:53:33;;;;;;;9.48;4.72;;;;;;;16.57;65.98;99390.47;3097649;28;20042;-53
2022/01/03 02:55:07;;;;;;;6.88;5.18;;;;;;;16.54;65.94;99395.16;3099219;28;20096;-54
2022/01/03 02:56:39;;;;;;;9.73;5.18;;;;;;;16.54;65.92;99397.00;3097871;28;20073;-56
2022/01/03 02:58:11;;;;;;;6.65;4.35;;;;;;;16.54;66.04;99388.97;3093269;28;20053;-54
2022/01/03 02:59:42;;;;;;;8.10;4.15;;;;;;;16.53;66.04;99387.31;3101533;28;20065;-55
2022/01/03 03:01:13;;;;;;;7.00;4.30;;;;;;;16.51;66.07;99392.00;3101826;28;20089;-54
2022/01/03 03:02:46;;;;;;;9.00;5.35;;;;;;;16.51;66.01;99389.31;3101832;28;20281;-54
2022/01/03 03:04:18;;;;;;;7.32;4.38;;;;;;;16.50;65.96;99377.78;3098946;28;20224;-54
2022/01/03 03:05:51;;;;;;;7.88;4.82;;;;;;;16.50;65.99;99376.94;3094890;28;20050;-54
2022/01/03 03:07:25;;;;;;;8.02;4.25;;;;;;;16.50;66.03;99371.59;3101561;28;20050;-56
2022/01/03 03:08:58;;;;;;;8.20;5.10;;;;;;;16.48;66.17;99357.53;3096064;28;20497;-56
2022/01/03 03:10:30;;;;;;;5.55;3.70;;;;;;;16.47;66.01;99359.38;3096601;28;20054;-56
2022/01/03 03:12:02;;;;;;;8.63;4.97;;;;;;;16.47;66.13;99355.88;3096870;28;20100;-56
2022/01/03 03:13:34;;;;;;;7.35;4.05;;;;;;;16.46;66.05;99346.16;3095380;28;20049;-55
2022/01/03 03:15:08;;;;;;;8.90;4.93;;;;;;;16.45;66.07;99348.00;3098998;28;20642;-54
2022/01/03 03:16:41;;;;;;;6.55;4.50;;;;;;;16.46;65.96;99338.13;3096414;28;20048;-52
2022/01/03 03:18:13;;;;;;;12.27;4.80;;;;;;;16.45;66.20;99334.63;3096823;28;20061;-54
2022/01/03 03:19:55;;;;;;;8.35;4.53;;;;;;;16.45;66.06;99336.47;3098739;28;20053;-55
2022/01/03 03:21:31;;;;;;;9.18;5.22;;;;;;;16.44;66.14;99337.47;3096281;28;20060;-53
2022/01/03 03:23:03;;;;;;;8.65;4.30;;;;;;;16.43;66.01;99347.31;3102089;28;20081;-56
2022/01/03 03:24:35;;;;;;;7.70;3.78;;;;;;;16.43;66.03;99355.38;3095834;28;20046;-54
2022/01/03 03:26:08;;;;;;;7.10;5.00;;;;;;;16.42;66.05;99350.19;3092872;28;20050;-54
2022/01/03 03:27:43;;;;;;;8.98;4.97;;;;;;;16.43;66.09;99359.88;3096505;28;20643;-55
2022/01/03 03:29:14;;;;;;;5.30;4.53;;;;;;;16.43;66.21;99359.88;3096883;28;20520;-55
2022/01/03 03:30:48;;;;;;;7.38;4.55;;;;;;;16.43;66.21;99351.84;3102473;28;20715;-55
2022/01/03 03:32:21;;;;;;;6.82;4.43;;;;;;;16.45;66.28;99356.03;3102726;28;20711;-55
2022/01/03 03:33:52;;;;;;;7.45;3.95;;;;;;;16.46;66.24;99363.03;3098525;28;20065;-56
2022/01/03 03:35:23;;;;;;;5.60;3.88;;;;;;;16.47;66.24;99350.53;3100212;28;20061;-55
2022/01/03 03:36:56;;;;;;;5.40;3.90;;;;;;;16.50;66.28;99355.53;3101880;28;20484;-55
2022/01/03 03:38:29;;;;;;;8.13;3.80;;;;;;;16.51;66.26;99373.25;3099159;28;20335;-55
2022/01/03 03:40:01;;;;;;;7.50;4.60;;;;;;;16.51;66.27;99367.91;3100016;28;20050;-55
2022/01/03 03:41:33;;;;;;;7.32;3.88;;;;;;;16.51;66.27;99375.94;3102724;28;20065;-55
2022/01/03 03:43:05;;;;;;;9.98;4.20;;;;;;;16.52;66.28;99378.44;3095196;28;20053;-55
2022/01/03 03:44:36;;;;;;;6.70;4.32;;;;;;;16.53;66.22;99379.28;3098271;28;20042;-56
2022/01/03 03:46:08;;;;;;;7.82;4.53;;;;;;;16.54;66.29;99383.63;3100558;28;20053;-56
2022/01/03 03:47:40;;;;;;;7.20;4.57;;;;;;;16.56;66.15;99384.28;3101867;28;20070;-54
2022/01/03 03:49:12;;;;;;;7.50;4.68;;;;;;;16.55;66.36;99382.63;3102735;28;20681;-55
2022/01/03 03:50:44;;;;;;;8.80;3.95;;;;;;;16.56;66.22;99380.78;3098621;28;20051;-55
2022/01/03 03:52:18;;;;;;;7.18;4.03;;;;;;;16.57;66.20;99382.44;3098895;28;20527;-57
2022/01/03 03:53:49;;;;;;;6.65;4.22;;;;;;;16.57;66.18;99385.94;3103845;28;20061;-56
2022/01/03 03:55:21;;;;;;;8.35;5.13;;;;;;;16.56;66.31;99370.91;3097117;28;20120;-54
2022/01/03 03:56:53;;;;;;;6.68;3.83;;;;;;;16.56;66.20;99360.19;3097041;28;20499;-56
2022/01/03 03:58:25;;;;;;;7.47;4.00;;;;;;;16.57;66.26;99344.94;3091920;28;20060;-56
2022/01/03 03:59:57;;;;;;;6.53;4.38;;;;;;;16.57;66.13;99332.38;3095434;28;20050;-54
2022/01/03 04:01:29;;;;;;;7.28;4.10;;;;;;;16.56;66.37;99325.38;3098987;28;20122;-52
2022/01/03 04:03:01;;;;;;;6.95;3.90;;;;;;;16.57;66.20;99312.81;3101439;28;20659;-55
2022/01/03 04:04:33;;;;;;;10.77;4.88;;;;;;;16.58;66.27;99303.78;3099907;28;20200;-56
2022/01/03 04:06:05;;;;;;;7.60;4.88;;;;;;;16.56;66.26;99293.25;3098655;28;20053;-55
2022/01/03 04:07:38;;;;;;;8.07;3.83;;;;;;;16.57;66.19;99286.88;3099253;28;20053;-55
2022/01/03 04:09:10;;;;;;;6.32;4.32;;;;;;;16.59;66.14;99292.06;3099073;28;20054;-55
2022/01/03 04:10:42;;;;;;;8.18;4.88;;;;;;;16.58;66.26;99291.22;3102769;28;20050;-55
2022/01/03 04:12:14;;;;;;;9.90;4.80;;;;;;;16.59;66.15;99294.75;3101911;28;20645;-53
2022/01/03 04:13:46;;;;;;;6.35;4.10;;;;;;;16.58;66.12;99293.09;3099239;28;20113;-55
2022/01/03 04:15:18;;;;;;;6.35;4.30;;;;;;;16.58;66.22;99293.09;3100110;28;20043;-55
2022/01/03 04:16:49;;;;;;;8.80;4.45;;;;;;;16.58;66.18;99298.44;3099688;28;20062;-54
2022/01/03 04:18:21;;;;;;;6.95;4.18;;;;;;;16.57;66.22;99296.75;3098600;28;20637;-56
2022/01/03 04:19:53;;;;;;;6.97;3.80;;;;;;;16.57;66.13;99302.94;3099718;28;20091;-55
2022/01/03 04:21:26;;;;;;;4.80;3.78;;;;;;;16.58;66.21;99296.59;3100323;28;20037;-57
2022/01/03 04:22:59;;;;;;;6.13;4.35;;;;;;;16.58;66.29;99306.47;3094071;28;20050;-55
2022/01/03 04:24:31;;;;;;;5.30;3.70;;;;;;;16.57;66.20;99308.28;3094252;28;20060;-53
2022/01/03 04:26:04;;;;;;;7.00;4.00;;;;;;;16.58;66.05;99303.78;3101819;28;20241;-54
2022/01/03 04:27:36;;;;;;;6.05;3.90;;;;;;;16.56;66.20;99311.97;3097143;28;20054;-58
2022/01/03 04:29:08;;;;;;;8.57;4.47;;;;;;;16.57;66.15;99312.81;3099071;28;20099;-55
2022/01/03 04:30:40;;;;;;;7.35;4.15;;;;;;;16.58;66.01;99309.16;3096607;28;20049;-53
2022/01/03 04:32:12;;;;;;;6.15;3.95;;;;;;;16.58;66.19;99314.50;3098879;28;20650;-54
2022/01/03 04:33:44;;;;;;;5.32;3.53;;;;;;;16.56;66.13;99320.03;3095987;28;20065;-57
2022/01/03 04:35:16;;;;;;;4.88;3.30;;;;;;;16.56;66.12;99314.66;3094190;28;20042;-52
2022/01/03 04:36:48;;;;;;;6.97;3.63;;;;;;;16.56;65.97;99320.03;3094483;28;20057;-56
2022/01/03 04:38:20;;;;;;;5.78;3.70;;;;;;;16.56;66.18;99313.84;3095949;28;20046;-55
2022/01/03 04:39:52;;;;;;;6.85;4.13;;;;;;;16.55;66.05;99310.31;3097213;28;20157;-54
2022/01/03 04:41:24;;;;;;;7.55;3.78;;;;;;;16.55;66.12;99307.66;3095100;28;20054;-55
2022/01/03 04:42:56;;;;;;;7.28;3.35;;;;;;;16.56;66.11;99303.13;3097717;28;20049;-54
2022/01/03 04:44:28;;;;;;;6.18;3.92;;;;;;;16.54;66.13;99317.50;3100588;28;20112;-55
2022/01/03 04:45:59;;;;;;;5.82;4.15;;;;;;;16.53;66.12;99317.69;3093890;28;20124;-53
2022/01/03 04:47:31;;;;;;;6.38;3.88;;;;;;;16.53;66.13;99317.69;3094952;28;20601;-54
2022/01/03 04:49:05;;;;;;;3.92;3.35;;;;;;;16.54;66.24;99314.00;3098097;28;20057;-55
2022/01/03 04:50:38;;;;;;;5.80;3.95;;;;;;;16.53;66.14;99318.53;3095293;28;20050;-54
2022/01/03 04:52:10;;;;;;;7.47;4.53;;;;;;;16.51;66.11;99315.16;3098904;28;20046;-52
2022/01/03 04:53:43;;;;;;;6.30;3.58;;;;;;;16.52;66.18;99318.72;3096191;28;20070;-53
2022/01/03 04:55:15;;;;;;;6.82;4.15;;;;;;;16.51;66.20;99309.00;3093020;28;20057;-54
2022/01/03 04:56:46;;;;;;;6.15;3.47;;;;;;;16.51;66.11;99298.28;3098068;28;20410;-55
2022/01/03 04:58:17;;;;;;;7.28;4.47;;;;;;;16.50;66.15;99296.63;3097815;28;20054;-56
2022/01/03 04:59:49;;;;;;;8.02;5.32;;;;;;;16.50;66.18;99300.13;3100260;28;20081;-57
2022/01/03 05:01:21;;;;;;;7.50;3.38;;;;;;;16.50;66.01;99294.78;3101004;28;20107;-55
2022/01/03 05:02:53;;;;;;;5.28;3.20;;;;;;;16.49;66.04;99284.22;3098577;28;20060;-55
2022/01/03 05:04:25;;;;;;;7.50;4.60;;;;;;;16.48;66.19;99274.53;3097338;28;20049;-56
2022/01/03 05:05:56;;;;;;;5.57;3.30;;;;;;;16.49;66.15;99278.88;3101061;28;20047;-53
2022/01/03 05:07:28;;;;;;;4.57;3.58;;;;;;;16.49;66.17;99282.41;3098321;28;20058;-56
2022/01/03 05:09:02;;;;;;;4.72;3.40;;;;;;;16.51;66.19;99282.22;3101531;28;20048;-52
2022/01/03 05:10:34;;;;;;;6.25;3.33;;;;;;;16.55;66.19;99272.84;3099338;28;20065;-57
2022/01/03 05:12:06;;;;;;;5.47;3.47;;;;;;;16.60;66.11;99278.47;3097949;28;20136;-54
2022/01/03 05:13:38;;;;;;;4.20;3.45;;;;;;;16.64;66.05;99281.66;3096593;28;20475;-55
2022/01/03 05:15:10;;;;;;;6.50;4.15;;;;;;;16.68;65.97;99278.44;3090780;28;20650;-54
2022/01/03 05:16:42;;;;;;;5.53;3.28;;;;;;;16.75;65.97;99267.88;3093603;28;20050;-55
2022/01/03 05:18:14;;;;;;;5.97;3.53;;;;;;;16.80;65.91;99253.97;3098684;28;20049;-56
2022/01/03 05:19:46;;;;;;;5.75;3.65;;;;;;;16.86;65.77;99269.34;3098783;28;20056;-55
2022/01/03 05:21:19;;;;;;;6.38;3.42;;;;;;;16.89;65.68;99269.81;3094466;28;20570;-55
2022/01/03 05:22:51;;;;;;;5.82;3.47;;;;;;;16.94;65.60;99272.81;3097082;28;20535;-55
2022/01/03 05:24:24;;;;;;;6.50;3.58;;;;;;;17.00;65.65;99278.47;3097832;28;20463;-55
2022/01/03 05:25:56;;;;;;;5.80;3.55;;;;;;;17.05;65.54;99278.75;3099134;28;20112;-57
2022/01/03 05:27:27;;;;;;;6.82;3.75;;;;;;;17.07;65.62;99271.38;3098816;28;20790;-55
2022/01/03 05:28:59;;;;;;;6.95;3.55;;;;;;;17.11;65.29;99281.56;3095518;28;20165;-55
2022/01/03 05:30:31;;;;;;;5.32;3.65;;;;;;;17.16;65.43;99287.25;3094546;28;20107;-55
2022/01/03 05:32:04;;;;;;;6.43;3.85;;;;;;;17.19;65.41;99289.56;3098981;28;20054;-54
2022/01/03 05:33:36;;;;;;;7.05;4.05;;;;;;;17.23;65.28;99282.00;3089631;28;20046;-54
2022/01/03 05:35:08;;;;;;;4.32;2.55;;;;;;;17.24;65.36;99285.50;3098144;28;20052;-56
2022/01/03 05:36:40;;;;;;;5.30;3.17;;;;;;;17.27;65.28;99285.16;3099037;28;20053;-55
2022/01/03 05:38:11;;;;;;;5.50;3.05;;;;;;;17.28;65.13;99281.47;3098922;28;20496;-57
2022/01/03 05:39:44;;;;;;;4.83;3.30;;;;;;;17.33;65.17;99287.13;3099337;28;20128;-55
2022/01/03 05:41:16;;;;;;;5.07;3.53;;;;;;;17.34;65.12;99284.25;3099142;28;20289;-55
2022/01/03 05:42:48;;;;;;;5.72;3.00;;;;;;;17.37;65.09;99281.22;3100158;28;20104;-56
2022/01/03 05:44:20;;;;;;;4.70;3.00;;;;;;;17.38;65.05;99274.84;3098346;28;20527;-56
2022/01/03 05:45:52;;;;;;;4.50;3.17;;;;;;;17.40;65.06;99280.03;3096521;28;20046;-56
2022/01/03 05:47:23;;;;;;;4.97;2.65;;;;;;;17.41;64.95;99274.50;3095496;28;20049;-56
2022/01/03 05:48:55;;;;;;;4.60;2.97;;;;;;;17.44;64.88;99278.66;3100241;28;20050;-55
2022/01/03 05:50:27;;;;;;;3.97;3.58;;;;;;;17.47;65.01;99272.06;3099669;28;20053;-55
2022/01/03 05:51:59;;;;;;;7.13;3.75;;;;;;;17.50;64.96;99272.56;3090518;28;20697;-53
2022/01/03 05:53:31;;;;;;;4.03;2.78;;;;;;;17.52;64.90;99283.94;3098594;28;20057;-56
2022/01/03 05:55:06;;;;;;;6.43;3.58;;;;;;;17.55;64.97;99275.53;3101840;28;20479;-55
2022/01/03 05:56:38;;;;;;;4.32;3.50;;;;;;;17.58;64.69;99283.22;3096234;28;20100;-56
2022/01/03 05:58:09;;;;;;;4.43;2.92;;;;;;;17.60;64.73;99286.53;3101826;28;20516;-56
2022/01/03 05:59:40;;;;;;;6.68;3.55;;;;;;;17.64;64.79;99279.81;3095695;28;20113;-55
2022/01/03 06:01:12;;;;;;;5.85;3.53;;;;;;;17.69;64.72;99286.47;3095532;28;20559;-56
2022/01/03 06:02:44;;;;;;;4.70;2.80;;;;;;;17.71;64.64;99279.09;3098653;28;20615;-57
2022/01/03 06:04:21;;;;;;;4.60;3.03;;;;;;;17.72;64.59;99278.91;3097279;28;20056;-56
2022/01/03 06:07:51;;;;;;;4.47;3.05;;;;;;;17.78;64.64;99288.09;3066699;28;20062;-56
2022/01/03 06:09:24;;;;;;;3.60;2.53;;;;;;;17.79;64.31;99295.13;3095271;28;20467;-54
2022/01/03 06:10:57;;;;;;;4.75;2.75;;;;;;;17.80;64.50;99292.28;3096251;28;20610;-56
2022/01/03 06:12:29;;;;;;;4.10;2.95;;;;;;;17.80;64.60;99288.75;3098447;28;20113;-57
2022/01/03 06:14:01;;;;;;;5.05;3.28;;;;;;;17.81;64.47;99285.06;3099668;28;20428;-56
2022/01/03 06:15:33;;;;;;;6.75;4.15;;;;;;;17.82;64.41;99276.00;3097380;28;20046;-56
2022/01/03 06:17:05;;;;;;;5.47;3.25;;;;;;;17.82;64.55;99284.88;3099094;28;20105;-55
2022/01/03 06:18:38;;;;;;;4.38;3.15;;;;;;;17.84;64.48;99287.38;3099341;28;20551;-57
2022/01/03 06:20:11;;;;;;;4.45;3.30;;;;;;;17.83;64.52;99289.22;3096241;28;20412;-54
2022/01/03 06:21:44;;;;;;;4.95;3.17;;;;;;;17.84;64.38;99280.16;3096451;28;20089;-55
2022/01/03 06:23:19;;;;;;;4.95;2.85;;;;;;;17.83;64.36;99280.34;3098872;28;20058;-56
2022/01/03 06:24:51;;;;;;;6.32;3.22;;;;;;;17.84;64.45;99284.69;3096920;28;20077;-56
2022/01/03 06:26:25;;;;;;;4.82;3.30;;;;;;;17.85;64.51;99287.19;3097470;28;20050;-55
2022/01/03 06:27:57;;;;;;;6.55;3.53;;;;;;;17.86;64.34;99275.44;3097153;28;20737;-56
2022/01/03 06:29:29;;;;;;;6.07;3.45;;;;;;;17.88;64.38;99274.41;3096186;28;20524;-57
2022/01/03 06:31:01;;;;;;;4.75;2.65;;;;;;;17.88;64.35;99272.56;3103140;28;20050;-57
2022/01/03 06:32:32;;;;;;;5.07;3.05;;;;;;;17.88;64.28;99280.63;3101236;28;20057;-55
2022/01/03 06:34:04;;;;;;;4.40;2.65;;;;;;;17.88;64.31;99283.31;3099274;28;20464;-56
2022/01/03 06:35:37;;;;;;;5.88;3.65;;;;;;;17.91;64.39;99284.78;3087473;28;20054;-55
2022/01/03 06:37:08;;;;;;;5.65;3.65;;;;;;;17.92;64.24;99273.88;3097829;28;20519;-55
2022/01/03 06:38:40;;;;;;;4.82;2.75;;;;;;;17.94;64.24;99287.09;3099432;28;20100;-56
2022/01/03 06:40:13;;;;;;;4.20;3.25;;;;;;;17.93;64.12;99283.59;3098090;28;20051;-57
2022/01/03 06:41:46;;;;;;;5.00;2.67;;;;;;;17.96;64.24;99285.06;3101281;28;20054;-55
2022/01/03 06:43:18;;;;;;;3.22;2.60;;;;;;;17.95;64.18;99283.41;3099574;28;20050;-55
2022/01/03 06:44:50;;;;;;;4.93;3.65;;;;;;;17.97;64.26;99279.53;3098133;28;20531;-56
2022/01/03 06:46:22;;;;;;;3.08;2.78;;;;;;;17.96;64.16;99282.38;3094153;28;20428;-55
2022/01/03 06:47:54;;;;;;;3.97;2.42;;;;;;;17.96;64.18;99277.84;3097543;28;20054;-53
2022/01/03 06:49:26;;;;;;;3.65;2.50;;;;;;;17.99;64.27;99282.03;3095113;28;20050;-55
2022/01/03 06:50:58;;;;;;;3.20;2.33;;;;;;;17.99;64.25;99273.97;3100223;28;20053;-56
2022/01/03 06:52:30;;;;;;;4.05;2.53;;;;;;;18.01;64.20;99271.94;3087614;28;20046;-55
2022/01/03 06:54:03;;;;;;;6.05;3.35;;;;;;;18.01;64.18;99259.34;3095813;28;20061;-54
2022/01/03 06:55:35;;;;;;;3.85;2.90;;;;;;;18.04;64.20;99255.47;3098137;28;20111;-54
2022/01/03 06:57:08;;;;;;;3.90;2.15;;;;;;;18.05;64.14;99241.00;3101238;28;20050;-55
2022/01/03 06:58:41;;;;;;;3.85;2.33;;;;;;;18.07;64.09;99257.78;3100188;28;20042;-55
2022/01/03 07:00:14;;;;;;;3.65;2.35;;;;;;;18.07;64.01;99247.88;3096925;28;20053;-55
2022/01/03 07:01:46;;;;;;;3.67;2.35;;;;;;;18.09;63.96;99261.94;3096204;28;20051;-55
2022/01/03 07:03:18;;;;;;;3.75;2.75;;;;;;;18.11;64.10;99256.41;3098768;28;20412;-53
2022/01/03 07:04:50;;;;;;;3.78;2.28;;;;;;;18.09;64.06;99251.22;3096853;28;20061;-55
2022/01/03 07:06:22;;;;;;;4.47;2.80;;;;;;;18.11;63.99;99258.22;3097540;28;20041;-55
2022/01/03 07:07:54;;;;;;;5.57;2.63;;;;;;;18.11;64.14;99256.41;3099249;28;20065;-56
2022/01/03 07:09:26;;;;;;;3.83;2.55;;;;;;;18.12;64.00;99249.19;3091208;28;20058;-55
2022/01/03 07:10:58;;;;;;;3.80;2.55;;;;;;;18.12;64.03;99244.63;3099921;28;20057;-56
2022/01/03 07:12:31;;;;;;;3.58;2.65;;;;;;;18.12;64.07;99250.00;3096971;28;20563;-57
2022/01/03 07:18:56;;;;;;;3.08;2.00;;;;;;;18.14;64.07;99255.19;3100664;28;20050;-55
2022/01/03 07:19:38;;;;;;;4.90;3.08;;;;;;;18.12;64.04;99255.38;3098998;28;20065;-56
2022/01/03 07:21:10;;;;;;;4.40;2.60;;;;;;;18.12;64.16;99250.00;3098313;28;20500;-57
2022/01/03 07:22:42;;;;;;;5.72;2.78;;;;;;;18.12;64.06;99262.59;3096051;28;20054;-59
2022/01/03 07:24:13;;;;;;;4.30;2.58;;;;;;;18.14;64.05;99274.00;3094975;28;20051;-55
2022/01/03 07:25:46;;;;;;;4.28;2.72;;;;;;;18.12;64.11;99273.34;3094234;28;20049;-56
2022/01/03 07:27:18;;;;;;;3.28;2.50;;;;;;;18.13;64.07;99269.63;3088410;28;20618;-55